Time;durP1;ratioP1;P1;durP2;ratioP2;P2;SDS_P1;SDS_P2;PMS_P1;PMS_P2;Temp;Humidity;BMP_temperature;BMP_pressure;BME280_temperature;BME280_humidity;BME280_pressure;Samples;Min_cycle;Max_cycle;Signal;HPM_P1;HPM_P2
2023/03/13 00:02:11;;;;;;;21.83;11.77;;;2.40;68.40;;;;;;4974086;28;20546;-78
2023/03/13 00:04:37;;;;;;;20.10;10.68;;;2.40;69.10;;;;;;4974745;28;20027;-79
2023/03/13 00:07:03;;;;;;;19.85;9.23;;;2.40;69.60;;;;;;4974034;28;20114;-78
2023/03/13 00:09:29;;;;;;;18.60;9.30;;;2.40;70.10;;;;;;4973312;28;20572;-77
2023/03/13 00:11:55;;;;;;;19.17;10.52;;;2.40;70.70;;;;;;4974085;28;20038;-79
2023/03/13 00:14:21;;;;;;;17.75;9.45;;;2.50;71.50;;;;;;4973157;28;20411;-78
2023/03/13 00:16:46;;;;;;;14.75;7.72;;;2.50;71.80;;;;;;4974890;28;20107;-78
2023/03/13 00:19:14;;;;;;;18.52;9.35;;;2.50;72.40;;;;;;4977212;28;20027;-78
2023/03/13 00:21:40;;;;;;;13.23;7.00;;;2.50;73.10;;;;;;4977929;28;20031;-78
2023/03/13 00:24:06;;;;;;;13.52;8.52;;;2.60;73.60;;;;;;4978331;28;20369;-78
2023/03/13 00:26:31;;;;;;;15.10;7.55;;;2.60;74.90;;;;;;4977927;28;20034;-78
2023/03/13 00:28:57;;;;;;;15.35;8.65;;;2.60;75.90;;;;;;4978100;28;20031;-78
2023/03/13 00:31:28;;;;;;;10.60;7.10;;;2.60;76.50;;;;;;4982448;28;20485;-78
2023/03/13 00:33:58;;;;;;;10.95;7.22;;;2.60;77.50;;;;;;4977675;28;20207;-83
2023/03/13 00:36:26;;;;;;;12.27;7.20;;;2.70;78.90;;;;;;4976121;28;20019;-83
2023/03/13 00:38:53;;;;;;;10.85;6.75;;;2.70;80.00;;;;;;4977353;28;20034;-83
2023/03/13 00:41:21;;;;;;;12.23;6.68;;;2.80;81.40;;;;;;4976149;28;20027;-81
2023/03/13 00:43:48;;;;;;;13.52;7.28;;;2.80;83.30;;;;;;4977565;28;20023;-83
2023/03/13 00:46:16;;;;;;;11.43;6.50;;;2.90;85.00;;;;;;4978795;28;20073;-83
2023/03/13 00:48:42;;;;;;;9.65;5.88;;;2.90;87.00;;;;;;4995868;28;20476;-80
2023/03/13 00:51:09;;;;;;;12.88;6.75;;;3.00;88.30;;;;;;4996885;28;20105;-78
2023/03/13 00:53:34;;;;;;;10.55;6.40;;;3.10;89.30;;;;;;4997310;28;20036;-79
2023/03/13 00:56:06;;;;;;;11.75;6.55;;;3.10;90.10;;;;;;4994513;28;20539;-79
2023/03/13 00:58:34;;;;;;;10.30;6.28;;;3.20;91.20;;;;;;4977831;28;20022;-83
2023/03/13 01:01:15;;;;;;;10.10;5.80;;;3.20;92.50;;;;;;4976093;28;20431;-80
2023/03/13 01:03:43;;;;;;;7.30;5.22;;;3.30;93.10;;;;;;4977623;28;20077;-78
2023/03/13 01:06:14;;;;;;;5.85;4.75;;;3.30;93.30;;;;;;4984375;28;20026;-79
2023/03/13 01:08:40;;;;;;;7.43;5.82;;;3.40;93.80;;;;;;4996897;28;20030;-80
2023/03/13 01:11:12;;;;;;;6.32;4.60;;;3.40;94.60;;;;;;4996893;28;20027;-80
2023/03/13 01:13:38;;;;;;;6.83;5.27;;;3.50;94.90;;;;;;4996220;28;20121;-80
2023/03/13 01:16:07;;;;;;;5.65;5.05;;;3.50;95.20;;;;;;4996432;28;20277;-79
2023/03/13 01:18:34;;;;;;;7.18;4.50;;;3.50;96.00;;;;;;4996536;28;20026;-82
2023/03/13 01:21:00;;;;;;;8.02;4.65;;;3.50;96.60;;;;;;4989193;28;20023;-82
2023/03/13 01:23:26;;;;;;;7.45;4.57;;;3.60;97.20;;;;;;4977200;28;20073;-80
2023/03/13 01:25:56;;;;;;;6.70;4.28;;;3.60;96.60;;;;;;4976563;28;20106;-82
2023/03/13 01:28:23;;;;;;;7.30;4.70;;;3.60;96.80;;;;;;4974446;28;20477;-81
2023/03/13 01:30:49;;;;;;;7.30;4.88;;;3.60;96.60;;;;;;4976543;28;20039;-81
2023/03/13 01:33:15;;;;;;;6.65;4.93;;;3.70;97.00;;;;;;4976172;28;20492;-84
2023/03/13 01:35:40;;;;;;;8.88;5.22;;;3.70;97.80;;;;;;4979575;28;20098;-80
2023/03/13 01:38:06;;;;;;;10.60;6.15;;;3.70;98.30;;;;;;4996225;28;20538;-81
2023/03/13 01:40:46;;;;;;;8.98;5.55;;;3.70;98.50;;;;;;4995670;28;20057;-80
2023/03/13 01:43:21;;;;;;;13.60;6.78;;;3.80;98.50;;;;;;4996446;28;20031;-81
2023/03/13 01:45:55;;;;;;;7.07;5.55;;;3.80;99.00;;;;;;4995632;28;20054;-81
2023/03/13 01:48:41;;;;;;;13.68;5.45;;;3.80;99.50;;;;;;4995613;28;20073;-83
2023/03/13 01:51:23;;;;;;;8.45;5.43;;;3.80;99.50;;;;;;4995557;28;20396;-83
2023/03/13 01:53:54;;;;;;;10.98;5.55;;;3.80;99.90;;;;;;4994689;28;20492;-83
2023/03/13 01:56:26;;;;;;;11.40;5.50;;;3.80;99.90;;;;;;4978321;28;20037;-78
2023/03/13 01:58:55;;;;;;;7.68;4.72;;;3.90;99.90;;;;;;4996137;28;20416;-78
2023/03/13 02:01:21;;;;;;;8.07;4.60;;;3.90;99.90;;;;;;4986302;28;20397;-79
2023/03/13 02:03:48;;;;;;;7.80;5.30;;;3.90;99.90;;;;;;4976646;28;20034;-79
2023/03/13 02:06:14;;;;;;;8.40;5.65;;;3.90;99.90;;;;;;4979385;28;20026;-78
2023/03/13 02:08:51;;;;;;;7.57;4.95;;;3.90;99.90;;;;;;4976492;28;20525;-80
2023/03/13 02:11:35;;;;;;;7.45;4.90;;;3.90;99.90;;;;;;4975153;28;20034;-80
2023/03/13 02:14:02;;;;;;;7.82;5.13;;;3.90;99.90;;;;;;4976393;28;20027;-80
2023/03/13 02:16:28;;;;;;;6.22;4.82;;;3.90;99.90;;;;;;4975729;28;20023;-81
2023/03/13 02:18:54;;;;;;;7.47;4.85;;;4.00;99.90;;;;;;4976253;28;20027;-81
2023/03/13 02:21:46;;;;;;;7.13;5.22;;;4.00;99.90;;;;;;4975011;28;20023;-81
2023/03/13 02:24:32;;;;;;;9.25;6.28;;;4.00;99.90;;;;;;4976371;28;20105;-81
2023/03/13 02:26:57;;;;;;;6.93;5.18;;;4.00;99.90;;;;;;5003433;28;20091;-80
2023/03/13 02:29:24;;;;;;;7.05;5.03;;;4.00;99.90;;;;;;4995648;28;20531;-80
2023/03/13 02:31:50;;;;;;;7.53;4.82;;;4.00;99.90;;;;;;4995300;28;20023;-81
2023/03/13 02:34:22;;;;;;;5.75;4.72;;;4.10;99.90;;;;;;4995343;28;20030;-80
2023/03/13 02:36:48;;;;;;;7.43;4.93;;;4.10;99.90;;;;;;4987697;28;20400;-79
2023/03/13 02:39:17;;;;;;;8.95;5.95;;;4.10;99.90;;;;;;4975936;28;20022;-79
2023/03/13 02:41:45;;;;;;;7.32;5.10;;;4.10;99.90;;;;;;4975180;28;20031;-81
2023/03/13 02:44:11;;;;;;;7.30;5.32;;;4.10;99.90;;;;;;4975669;28;20030;-82
2023/03/13 02:46:49;;;;;;;7.88;5.32;;;4.10;99.90;;;;;;4974580;28;20026;-82
2023/03/13 02:49:20;;;;;;;7.75;6.03;;;4.10;99.90;;;;;;4975364;28;20097;-80
2023/03/13 02:51:46;;;;;;;12.00;6.40;;;4.10;99.90;;;;;;4975037;28;20034;-81
2023/03/13 02:54:17;;;;;;;9.07;5.60;;;4.10;99.90;;;;;;4974133;28;20428;-82
2023/03/13 02:56:45;;;;;;;5.72;5.20;;;4.10;99.90;;;;;;4974786;28;20019;-80
2023/03/13 02:59:11;;;;;;;7.80;5.35;;;4.20;99.90;;;;;;4975414;28;20034;-81
2023/03/13 03:01:37;;;;;;;6.68;5.45;;;4.20;99.90;;;;;;4974843;28;20544;-82
2023/03/13 03:04:03;;;;;;;11.63;6.10;;;4.20;99.90;;;;;;4973817;28;20026;-80
2023/03/13 03:06:28;;;;;;;13.68;5.78;;;4.20;99.90;;;;;;4974716;28;20069;-80
2023/03/13 03:08:54;;;;;;;6.72;5.15;;;4.20;99.90;;;;;;4973714;28;20665;-83
2023/03/13 03:11:20;;;;;;;7.80;5.55;;;4.20;99.90;;;;;;4974448;28;20456;-83
2023/03/13 03:13:46;;;;;;;9.10;5.28;;;4.20;99.90;;;;;;4974535;28;20109;-84
2023/03/13 03:16:14;;;;;;;10.50;6.22;;;4.30;99.90;;;;;;4974671;28;20381;-84
2023/03/13 03:18:39;;;;;;;11.05;5.70;;;4.20;99.90;;;;;;4974651;28;20031;-78
2023/03/13 03:21:06;;;;;;;7.28;5.35;;;4.30;99.90;;;;;;4974791;28;20029;-80
2023/03/13 03:23:35;;;;;;;7.43;5.43;;;4.30;99.90;;;;;;4973967;28;20023;-83
2023/03/13 03:26:03;;;;;;;9.95;6.18;;;4.30;99.90;;;;;;4973187;28;20019;-84
2023/03/13 03:28:29;;;;;;;7.18;5.13;;;4.30;99.90;;;;;;4993513;28;20134;-83
2023/03/13 03:30:55;;;;;;;8.10;5.55;;;4.30;99.90;;;;;;4993065;28;20052;-83
2023/03/13 03:33:22;;;;;;;9.10;4.93;;;4.30;99.90;;;;;;4974160;28;20014;-84
2023/03/13 03:35:49;;;;;;;6.50;5.30;;;4.30;99.90;;;;;;4973936;28;20370;-82
2023/03/13 03:38:15;;;;;;;9.45;5.95;;;4.30;99.90;;;;;;4974831;28;20034;-83
2023/03/13 03:40:41;;;;;;;9.15;4.97;;;4.40;99.90;;;;;;4974364;28;20015;-84
2023/03/13 03:43:07;;;;;;;6.55;5.20;;;4.30;99.90;;;;;;4974289;28;20027;-84
2023/03/13 03:45:33;;;;;;;7.60;5.82;;;4.30;99.90;;;;;;4972584;28;20038;-84
2023/03/13 03:47:58;;;;;;;7.70;5.38;;;4.30;99.90;;;;;;4974162;28;20086;-83
2023/03/13 03:50:27;;;;;;;8.57;5.22;;;4.40;99.90;;;;;;4974232;28;20034;-79
2023/03/13 03:52:53;;;;;;;9.68;6.25;;;4.30;99.90;;;;;;4972946;28;20102;-81
2023/03/13 03:55:19;;;;;;;8.35;5.50;;;4.40;99.90;;;;;;4974710;28;20054;-81
2023/03/13 03:57:45;;;;;;;8.25;5.65;;;4.40;99.90;;;;;;4983755;28;20045;-81
2023/03/13 04:00:13;;;;;;;8.80;5.00;;;4.40;99.90;;;;;;4974557;28;20030;-81
2023/03/13 04:02:38;;;;;;;7.88;5.75;;;4.40;99.90;;;;;;4974014;28;20019;-80
2023/03/13 04:05:04;;;;;;;11.10;6.63;;;4.40;99.90;;;;;;4974459;28;20110;-81
2023/03/13 04:07:30;;;;;;;7.78;5.82;;;4.40;99.90;;;;;;4974366;28;20030;-80
2023/03/13 04:09:56;;;;;;;7.13;5.47;;;4.40;99.90;;;;;;4973457;28;20121;-81
2023/03/13 04:12:21;;;;;;;7.95;5.75;;;4.40;99.90;;;;;;4983364;28;20023;-79
2023/03/13 04:14:47;;;;;;;10.20;5.72;;;4.40;99.90;;;;;;4993710;28;20023;-79
2023/03/13 04:17:13;;;;;;;8.98;5.72;;;4.40;99.90;;;;;;4993303;28;20022;-81
2023/03/13 04:19:38;;;;;;;11.57;5.78;;;4.40;99.90;;;;;;4992783;28;20030;-79
2023/03/13 04:22:04;;;;;;;10.43;6.40;;;4.40;99.90;;;;;;4972594;28;20023;-80
2023/03/13 04:24:30;;;;;;;8.75;6.25;;;4.40;99.90;;;;;;4972637;28;20026;-80
2023/03/13 04:26:55;;;;;;;9.57;6.47;;;4.50;99.90;;;;;;4980753;28;20045;-80
2023/03/13 04:29:21;;;;;;;8.48;5.60;;;4.40;99.90;;;;;;4992375;28;20062;-79
2023/03/13 04:31:46;;;;;;;10.77;6.15;;;4.40;99.90;;;;;;4993469;28;20023;-79
2023/03/13 04:34:12;;;;;;;10.55;7.53;;;4.40;99.90;;;;;;4993624;28;20065;-79
2023/03/13 04:36:37;;;;;;;10.90;6.75;;;4.40;99.90;;;;;;4993262;28;20037;-77
2023/03/13 04:39:03;;;;;;;9.30;6.45;;;4.40;99.90;;;;;;4993572;28;20472;-78
2023/03/13 04:41:29;;;;;;;10.65;7.38;;;4.40;99.90;;;;;;4993153;28;20022;-79
2023/03/13 04:43:55;;;;;;;12.52;7.85;;;4.40;99.90;;;;;;4992344;28;20488;-79
2023/03/13 04:46:20;;;;;;;12.30;7.80;;;4.40;99.90;;;;;;4983177;28;20038;-79
2023/03/13 04:48:46;;;;;;;14.13;8.88;;;4.40;99.90;;;;;;4972708;28;20058;-78
2023/03/13 04:51:12;;;;;;;14.70;8.55;;;4.40;99.90;;;;;;4973680;28;20102;-79
2023/03/13 04:53:38;;;;;;;16.10;8.80;;;4.40;99.90;;;;;;4974096;28;20102;-78
2023/03/13 04:56:03;;;;;;;12.75;8.65;;;4.40;99.90;;;;;;4973770;28;20081;-78
2023/03/13 04:58:29;;;;;;;14.45;8.38;;;4.40;99.90;;;;;;4974343;28;20031;-78
2023/03/13 05:00:55;;;;;;;13.50;7.38;;;4.40;99.90;;;;;;4972712;28;20480;-78
2023/03/13 05:03:22;;;;;;;11.60;7.72;;;4.40;99.90;;;;;;4973964;28;20027;-79
2023/03/13 05:05:47;;;;;;;9.70;6.85;;;4.40;99.90;;;;;;4975862;28;20038;-78
2023/03/13 05:08:13;;;;;;;13.75;6.80;;;4.50;99.90;;;;;;4976368;28;20023;-79
2023/03/13 05:10:41;;;;;;;11.38;6.63;;;4.50;99.90;;;;;;4977306;28;20489;-78
2023/03/13 05:13:07;;;;;;;13.52;7.45;;;4.50;99.90;;;;;;4989078;28;20029;-79
2023/03/13 05:15:32;;;;;;;11.50;7.00;;;4.50;99.90;;;;;;4975583;28;20030;-80
2023/03/13 05:17:58;;;;;;;12.57;8.70;;;4.50;99.90;;;;;;4977351;28;20065;-82
2023/03/13 05:20:24;;;;;;;15.35;8.88;;;4.50;99.90;;;;;;4976583;28;20022;-82
2023/03/13 05:22:49;;;;;;;12.43;8.52;;;4.60;99.90;;;;;;4977229;28;20030;-81
2023/03/13 05:25:15;;;;;;;12.32;7.78;;;4.60;99.90;;;;;;4976873;28;20033;-82
2023/03/13 05:27:41;;;;;;;14.60;8.75;;;4.50;99.90;;;;;;4989504;28;20026;-80
2023/03/13 05:30:07;;;;;;;12.73;8.88;;;4.60;99.90;;;;;;4996430;28;20130;-82
2023/03/13 05:32:33;;;;;;;15.57;8.13;;;4.60;99.90;;;;;;4995812;28;20018;-79
2023/03/13 05:34:58;;;;;;;9.50;7.05;;;4.60;99.90;;;;;;4996448;28;20030;-81
2023/03/13 05:37:24;;;;;;;11.50;7.50;;;4.60;99.90;;;;;;4996025;28;20062;-78
2023/03/13 05:39:50;;;;;;;10.80;6.68;;;4.60;99.90;;;;;;4996528;28;20069;-78
2023/03/13 05:42:15;;;;;;;9.90;7.00;;;4.70;99.90;;;;;;4995774;28;20029;-81
2023/03/13 05:44:41;;;;;;;8.48;6.45;;;4.70;99.90;;;;;;4996492;28;20019;-81
2023/03/13 05:47:06;;;;;;;10.48;7.05;;;4.70;99.90;;;;;;4987087;28;20046;-80
2023/03/13 05:49:32;;;;;;;9.65;6.97;;;4.70;99.90;;;;;;4976715;28;20045;-82
2023/03/13 05:51:58;;;;;;;11.38;6.78;;;4.70;99.90;;;;;;4979908;28;20050;-82
2023/03/13 05:54:23;;;;;;;7.20;5.65;;;4.70;99.90;;;;;;4995024;28;20407;-81
2023/03/13 05:56:50;;;;;;;9.32;6.60;;;4.80;99.90;;;;;;4987964;28;20062;-79
2023/03/13 05:59:16;;;;;;;11.32;8.02;;;4.80;99.90;;;;;;4978925;28;20065;-80
2023/03/13 06:01:42;;;;;;;9.90;7.05;;;4.80;99.90;;;;;;4981843;28;20022;-83
2023/03/13 06:04:08;;;;;;;11.70;6.53;;;4.80;99.90;;;;;;4978589;28;20502;-80
2023/03/13 06:06:33;;;;;;;8.50;6.65;;;4.80;99.90;;;;;;4980201;28;20391;-80
2023/03/13 06:09:02;;;;;;;11.85;7.38;;;4.80;99.90;;;;;;4983113;28;20472;-84
2023/03/13 06:11:28;;;;;;;10.27;6.47;;;4.90;99.90;;;;;;4981519;28;20041;-83
2023/03/13 06:13:54;;;;;;;10.13;5.70;;;4.90;99.90;;;;;;4975994;28;20031;-81
2023/03/13 06:16:19;;;;;;;12.30;7.47;;;4.90;99.90;;;;;;4975338;28;20134;-80
2023/03/13 06:18:45;;;;;;;9.32;6.43;;;5.00;99.90;;;;;;4976037;28;20061;-79
2023/03/13 06:21:11;;;;;;;8.02;5.95;;;5.00;99.90;;;;;;4977611;28;20118;-80
2023/03/13 06:23:36;;;;;;;8.23;5.60;;;5.10;99.90;;;;;;4976378;28;20023;-79
2023/03/13 06:26:02;;;;;;;9.60;6.75;;;5.20;99.90;;;;;;4976113;28;20080;-79
2023/03/13 06:28:28;;;;;;;10.05;6.18;;;5.20;99.90;;;;;;4975983;28;20023;-79
2023/03/13 06:30:54;;;;;;;10.50;5.72;;;5.30;99.90;;;;;;4976089;28;20035;-80
2023/03/13 06:33:20;;;;;;;9.57;5.97;;;5.30;99.90;;;;;;4980770;28;20027;-80
2023/03/13 06:35:45;;;;;;;9.52;5.40;;;5.40;99.90;;;;;;4984079;28;20030;-80
2023/03/13 06:38:11;;;;;;;9.95;5.63;;;5.40;99.90;;;;;;4976697;28;20388;-79
2023/03/13 06:40:36;;;;;;;8.13;5.53;;;5.50;99.90;;;;;;4974763;28;20139;-79
2023/03/13 06:43:02;;;;;;;9.73;5.35;;;5.50;99.90;;;;;;4975624;28;20027;-79
2023/03/13 06:45:28;;;;;;;9.85;5.72;;;5.60;99.90;;;;;;4974649;28;20110;-78
2023/03/13 06:47:53;;;;;;;11.02;5.53;;;5.70;99.90;;;;;;4975650;28;20055;-78
2023/03/13 06:50:19;;;;;;;10.88;5.90;;;5.80;99.90;;;;;;4974493;28;20035;-78
2023/03/13 06:52:47;;;;;;;9.25;6.13;;;5.90;99.90;;;;;;4974205;28;20038;-78
2023/03/13 06:55:13;;;;;;;7.28;5.75;;;5.90;99.90;;;;;;4976440;28;20034;-80
2023/03/13 06:57:38;;;;;;;13.52;7.45;;;6.00;99.90;;;;;;4974378;28;20027;-80
2023/03/13 07:00:05;;;;;;;13.35;6.53;;;6.10;99.90;;;;;;4978146;28;20106;-80
2023/03/13 07:02:31;;;;;;;8.43;5.57;;;6.20;99.90;;;;;;4979068;28;20029;-80
2023/03/13 07:04:57;;;;;;;8.43;5.18;;;6.30;99.90;;;;;;4982485;28;20031;-80
2023/03/13 07:07:22;;;;;;;11.68;5.40;;;6.50;99.90;;;;;;4988452;28;20110;-80
2023/03/13 07:09:48;;;;;;;8.70;5.65;;;6.60;99.90;;;;;;4973811;28;20524;-79
2023/03/13 07:12:14;;;;;;;10.98;5.80;;;6.70;99.90;;;;;;4973816;28;20023;-78
2023/03/13 07:14:39;;;;;;;10.77;6.65;;;6.80;99.90;;;;;;4989243;28;20424;-79
2023/03/13 07:17:05;;;;;;;9.57;7.50;;;6.80;99.90;;;;;;4973777;28;20023;-80
2023/03/13 07:19:31;;;;;;;12.48;6.70;;;6.80;99.90;;;;;;4973702;28;20146;-80
2023/03/13 07:21:56;;;;;;;9.45;6.85;;;6.90;99.90;;;;;;4973746;28;20042;-80
2023/03/13 07:24:22;;;;;;;10.93;7.13;;;6.80;99.90;;;;;;4974956;28;20019;-79
2023/03/13 07:26:48;;;;;;;15.50;8.35;;;6.80;99.90;;;;;;4973875;28;20034;-80
2023/03/13 07:29:13;;;;;;;12.88;7.43;;;6.90;99.90;;;;;;4973742;28;20026;-80
2023/03/13 07:31:39;;;;;;;13.02;7.35;;;6.90;99.90;;;;;;4974668;28;20026;-80
2023/03/13 07:34:04;;;;;;;16.02;7.05;;;7.00;99.90;;;;;;4975050;28;20049;-81
2023/03/13 07:36:30;;;;;;;13.57;7.15;;;7.10;99.90;;;;;;4973268;28;20019;-79
2023/03/13 07:38:56;;;;;;;10.85;7.25;;;7.20;99.90;;;;;;4974701;28;20070;-79
2023/03/13 07:41:22;;;;;;;12.10;7.30;;;7.20;99.60;;;;;;4974523;28;20062;-79
2023/03/13 07:43:47;;;;;;;12.85;7.05;;;7.40;99.90;;;;;;4974705;28;20023;-79
2023/03/13 07:46:17;;;;;;;13.50;6.93;;;7.40;99.00;;;;;;4973474;28;20077;-79
2023/03/13 07:48:43;;;;;;;14.20;7.03;;;7.50;97.50;;;;;;4982047;28;20050;-79
2023/03/13 07:51:20;;;;;;;14.63;7.10;;;7.50;96.60;;;;;;4992387;28;20037;-79
2023/03/13 07:53:46;;;;;;;15.43;7.40;;;7.60;95.70;;;;;;4992651;28;20026;-79
2023/03/13 07:56:14;;;;;;;13.27;7.05;;;7.70;95.50;;;;;;4992933;28;20037;-79
2023/03/13 07:58:41;;;;;;;12.75;6.75;;;7.80;95.50;;;;;;4983932;28;20066;-79
2023/03/13 08:01:09;;;;;;;11.10;6.70;;;8.00;94.90;;;;;;4973517;28;20058;-80
2023/03/13 08:03:35;;;;;;;13.85;6.82;;;8.20;95.20;;;;;;4975749;28;20073;-81
2023/03/13 08:06:04;;;;;;;14.70;6.95;;;8.40;92.00;;;;;;4975187;28;20030;-79
2023/03/13 08:08:30;;;;;;;13.60;6.28;;;8.60;91.40;;;;;;4976609;28;20023;-79
2023/03/13 08:11:07;;;;;;;10.38;5.93;;;8.80;88.70;;;;;;4972989;28;20031;-80
2023/03/13 08:13:34;;;;;;;10.70;5.85;;;8.80;86.50;;;;;;4985192;28;20031;-80
2023/03/13 08:16:03;;;;;;;10.65;6.05;;;8.70;85.70;;;;;;4993620;28;20029;-81
2023/03/13 08:18:28;;;;;;;9.88;5.60;;;8.70;86.30;;;;;;4992741;28;20480;-81
2023/03/13 08:20:54;;;;;;;12.68;6.07;;;8.60;86.30;;;;;;4992620;28;20033;-79
2023/03/13 08:23:19;;;;;;;11.02;6.25;;;8.80;87.00;;;;;;4992699;28;20030;-79
2023/03/13 08:25:45;;;;;;;11.80;5.60;;;9.10;87.80;;;;;;4993797;28;20077;-79
2023/03/13 08:28:11;;;;;;;12.93;5.22;;;9.20;84.50;;;;;;4992478;28;20025;-80
2023/03/13 08:30:36;;;;;;;13.57;5.47;;;9.30;84.80;;;;;;4993395;28;20480;-79
2023/03/13 08:33:02;;;;;;;9.30;5.18;;;9.50;83.70;;;;;;4993730;28;20105;-81
2023/03/13 08:35:28;;;;;;;11.27;5.20;;;9.60;82.40;;;;;;4984737;28;20031;-79
2023/03/13 08:37:54;;;;;;;10.27;5.30;;;9.60;80.70;;;;;;4974304;28;20099;-81
2023/03/13 08:40:20;;;;;;;8.95;4.90;;;9.70;80.30;;;;;;4977342;28;20110;-81
2023/03/13 08:42:45;;;;;;;8.88;4.47;;;9.80;80.80;;;;;;4995814;28;20031;-79
2023/03/13 08:45:11;;;;;;;7.40;4.57;;;9.90;79.70;;;;;;4997189;28;20026;-80
2023/03/13 08:47:36;;;;;;;9.95;4.85;;;10.00;79.50;;;;;;4981375;28;20489;-81
2023/03/13 08:50:02;;;;;;;14.27;5.22;;;10.10;78.90;;;;;;4991300;28;20051;-80
2023/03/13 08:52:28;;;;;;;9.73;4.88;;;10.30;79.00;;;;;;4975307;28;20534;-80
2023/03/13 08:54:53;;;;;;;13.13;4.97;;;10.30;77.10;;;;;;4989733;28;20114;-80
2023/03/13 08:57:19;;;;;;;9.38;4.22;;;10.40;77.60;;;;;;4976717;28;20035;-79
2023/03/13 08:59:45;;;;;;;9.65;4.50;;;10.50;76.90;;;;;;4976769;28;20030;-79
2023/03/13 09:02:10;;;;;;;8.75;4.13;;;10.50;76.90;;;;;;4989788;28;20472;-80
2023/03/13 09:04:36;;;;;;;12.95;4.10;;;10.60;77.10;;;;;;4996546;28;20102;-79
2023/03/13 09:07:02;;;;;;;10.82;4.30;;;10.70;76.50;;;;;;4982011;28;20477;-79
2023/03/13 09:09:27;;;;;;;8.48;4.50;;;10.70;75.70;;;;;;4976018;28;20041;-81
2023/03/13 09:11:53;;;;;;;8.65;3.90;;;10.80;75.20;;;;;;4985010;28;20419;-81
2023/03/13 09:14:18;;;;;;;8.05;3.78;;;10.80;75.00;;;;;;4998611;28;20118;-80
2023/03/13 09:16:45;;;;;;;9.35;4.43;;;10.80;75.30;;;;;;4995953;28;20499;-79
2023/03/13 09:19:11;;;;;;;11.45;4.18;;;10.80;74.10;;;;;;4996638;28;20045;-80
2023/03/13 09:21:37;;;;;;;12.23;4.70;;;10.70;73.60;;;;;;4995159;28;20105;-81
2023/03/13 09:24:03;;;;;;;8.65;4.53;;;10.70;74.10;;;;;;4995330;28;20113;-79
2023/03/13 09:26:29;;;;;;;15.93;4.78;;;10.80;74.40;;;;;;4996349;28;20026;-80
2023/03/13 09:28:55;;;;;;;12.88;4.68;;;10.80;73.70;;;;;;4996607;28;20027;-80
2023/03/13 09:31:25;;;;;;;10.73;4.43;;;10.90;74.00;;;;;;4994804;28;20105;-80
2023/03/13 09:33:52;;;;;;;10.32;4.55;;;11.00;72.80;;;;;;4993183;28;20022;-80
2023/03/13 09:36:19;;;;;;;12.90;4.47;;;11.00;72.10;;;;;;4994338;28;20105;-80
2023/03/13 09:38:45;;;;;;;6.15;4.18;;;11.10;72.80;;;;;;4996285;28;20049;-80
2023/03/13 09:41:22;;;;;;;7.93;3.88;;;11.10;71.90;;;;;;4996297;28;20478;-81
2023/03/13 09:44:06;;;;;;;9.13;4.72;;;11.00;71.60;;;;;;4995845;28;20018;-80
2023/03/13 09:47:08;;;;;;;16.10;5.43;;;11.00;71.60;;;;;;4976267;28;20034;-80
2023/03/13 09:49:50;;;;;;;9.45;4.25;;;11.20;72.30;;;;;;4972237;28;20051;-80
2023/03/13 09:52:21;;;;;;;8.73;4.30;;;11.40;71.00;;;;;;4976418;28;20037;-81
2023/03/13 09:55:02;;;;;;;9.60;3.93;;;11.40;70.70;;;;;;4986816;28;20114;-81
2023/03/13 09:57:54;;;;;;;14.82;4.38;;;11.40;69.20;;;;;;4975081;28;20270;-80
2023/03/13 10:00:28;;;;;;;8.45;3.65;;;11.40;69.30;;;;;;4976510;28;20027;-81
2023/03/13 10:03:06;;;;;;;11.35;4.03;;;11.50;68.70;;;;;;4975040;28;20117;-80
2023/03/13 10:05:32;;;;;;;14.38;4.18;;;11.70;69.20;;;;;;4981847;28;20093;-80
2023/03/13 10:08:23;;;;;;;10.85;4.55;;;11.80;69.60;;;;;;4995536;28;20109;-80
2023/03/13 10:10:54;;;;;;;10.15;4.13;;;11.90;68.30;;;;;;4982494;28;20039;-81
2023/03/13 10:13:35;;;;;;;11.68;4.80;;;12.10;67.90;;;;;;4974327;28;20023;-81
2023/03/13 10:16:08;;;;;;;10.38;4.30;;;12.00;66.70;;;;;;4973271;28;20055;-81
2023/03/13 10:18:34;;;;;;;;;;;12.20;67.50;;;;;;4973324;28;20385;-80
2023/03/13 10:21:31;;;;;;;10.05;4.47;;;12.20;67.00;;;;;;4974075;28;19913;-81
2023/03/13 10:24:04;;;;;;;11.02;4.30;;;12.20;66.00;;;;;;4987076;28;20038;-81
2023/03/13 10:26:35;;;;;;;4.95;3.83;;;12.10;66.30;;;;;;4974140;28;20019;-82
2023/03/13 10:29:24;;;;;;;9.30;4.22;;;12.30;67.60;;;;;;4974370;28;20023;-81
2023/03/13 10:32:02;;;;;;;9.05;3.45;;;12.20;66.20;;;;;;4975389;28;20034;-81
2023/03/13 10:34:43;;;;;;;6.85;3.90;;;12.20;66.50;;;;;;4975625;28;20019;-81
2023/03/13 10:37:13;;;;;;;5.32;3.75;;;12.30;66.70;;;;;;4974594;28;20030;-81
2023/03/13 10:39:39;;;;;;;8.27;3.90;;;12.30;66.30;;;;;;4974264;28;20078;-80
2023/03/13 10:42:27;;;;;;;6.07;2.95;;;12.20;66.20;;;;;;4974629;28;20066;-81
2023/03/13 10:45:04;;;;;;;10.13;3.97;;;12.10;66.40;;;;;;4975616;28;20034;-81
2023/03/13 10:47:34;;;;;;;11.32;3.55;;;12.00;66.30;;;;;;4975458;28;20440;-81
2023/03/13 10:50:01;;;;;;;7.45;4.25;;;12.00;66.50;;;;;;4975419;28;20047;-81
2023/03/13 10:52:28;;;;;;;8.68;3.15;;;12.20;67.50;;;;;;4975380;28;20366;-81
2023/03/13 10:55:00;;;;;;;10.38;3.70;;;12.20;66.20;;;;;;4974571;28;20030;-80
2023/03/13 10:57:33;;;;;;;8.02;4.38;;;12.30;66.10;;;;;;4974271;28;20369;-80
2023/03/13 11:00:06;;;;;;;6.65;3.55;;;12.30;66.50;;;;;;4987031;28;20019;-81
2023/03/13 11:02:38;;;;;;;8.85;3.35;;;12.30;66.30;;;;;;4983482;28;20029;-81
2023/03/13 11:05:22;;;;;;;8.90;3.47;;;12.30;66.10;;;;;;4990003;28;20026;-81
2023/03/13 11:07:48;;;;;;;8.02;4.15;;;12.30;66.10;;;;;;4986242;28;20477;-81
2023/03/13 11:10:24;;;;;;;7.97;3.25;;;12.40;67.10;;;;;;4983839;28;20111;-81
2023/03/13 11:12:52;;;;;;;7.13;3.53;;;12.40;65.90;;;;;;4994260;28;20049;-81
2023/03/13 11:15:36;;;;;;;5.55;3.28;;;12.40;66.30;;;;;;4993115;28;20052;-81
2023/03/13 11:18:20;;;;;;;5.57;2.90;;;12.30;65.20;;;;;;4994454;28;20061;-81
2023/03/13 11:20:47;;;;;;;9.27;3.20;;;12.40;66.40;;;;;;4993398;28;20038;-81
2023/03/13 11:23:28;;;;;;;7.05;2.75;;;12.50;66.50;;;;;;4993830;28;20028;-81
2023/03/13 11:26:22;;;;;;;7.97;3.70;;;12.60;66.10;;;;;;4994278;28;20029;-81
2023/03/13 11:28:50;;;;;;;4.35;2.88;;;12.60;65.10;;;;;;4994212;28;20424;-81
2023/03/13 11:31:30;;;;;;;6.88;3.13;;;12.60;65.20;;;;;;4994413;28;20074;-80
2023/03/13 11:34:26;;;;;;;9.10;2.30;;;12.50;64.20;;;;;;4993364;28;20026;-82
2023/03/13 11:36:52;;;;;;;9.00;3.63;;;12.60;63.80;;;;;;4975818;28;20042;-81
2023/03/13 11:39:26;;;;;;;10.70;3.13;;;12.60;63.20;;;;;;4973839;28;20469;-81
2023/03/13 11:43:00;;;;;;;13.05;3.05;;;12.50;63.20;;;;;;4980319;28;20065;-81
2023/03/13 11:46:02;;;;;;;9.68;2.88;;;12.50;62.80;;;;;;4944533;29;20043;-81
2023/03/13 11:49:06;;;;;;;11.95;2.80;;;12.50;62.60;;;;;;4951432;29;20067;-81
2023/03/13 11:51:51;;;;;;;11.00;2.78;;;12.60;62.00;;;;;;4975630;28;20469;-81
2023/03/13 11:54:44;;;;;;;9.77;2.75;;;12.50;61.90;;;;;;4978705;28;20015;-81
2023/03/13 11:57:31;;;;;;;10.95;2.92;;;12.60;62.00;;;;;;4973001;28;20088;-81
2023/03/13 12:00:17;;;;;;;9.07;2.97;;;12.60;61.60;;;;;;4971638;28;20515;-81
2023/03/13 12:03:07;;;;;;;13.98;3.47;;;12.60;61.20;;;;;;4970285;28;20030;-81
2023/03/13 12:05:44;;;;;;;5.80;2.38;;;12.60;61.20;;;;;;4971474;28;20081;-81
2023/03/13 12:08:40;;;;;;;7.45;2.70;;;12.60;60.90;;;;;;4972340;28;20054;-81
2023/03/13 12:11:45;;;;;;;10.43;2.58;;;12.60;61.30;;;;;;4971024;28;20492;-81
2023/03/13 12:14:29;;;;;;;9.82;2.33;;;12.60;60.60;;;;;;4971962;28;20026;-81
2023/03/13 12:17:07;;;;;;;9.63;2.70;;;12.60;61.60;;;;;;4974435;28;20027;-81
2023/03/13 12:19:50;;;;;;;10.32;2.42;;;12.60;61.10;;;;;;4973065;28;20046;-81
2023/03/13 12:22:31;;;;;;;12.98;2.67;;;12.50;60.20;;;;;;4974341;28;20030;-81
2023/03/13 12:25:04;;;;;;;8.27;2.97;;;12.60;60.80;;;;;;4974252;28;20047;-81
2023/03/13 12:27:35;;;;;;;6.68;2.53;;;12.50;60.50;;;;;;4974232;28;20023;-81
2023/03/13 12:30:11;;;;;;;7.10;2.42;;;12.50;59.90;;;;;;4974242;28;20035;-81
2023/03/13 12:32:43;;;;;;;7.28;2.40;;;12.50;59.40;;;;;;4972941;28;20023;-81
2023/03/13 12:35:11;;;;;;;6.18;3.17;;;12.60;60.50;;;;;;4974130;28;20029;-81
2023/03/13 12:37:51;;;;;;;4.18;1.90;;;12.50;59.50;;;;;;4974053;28;20450;-81
2023/03/13 12:40:29;;;;;;;6.80;2.80;;;12.50;58.80;;;;;;4972695;28;20023;-81
2023/03/13 12:43:13;;;;;;;4.90;2.20;;;12.50;57.50;;;;;;4974062;28;20031;-81
2023/03/13 12:45:57;;;;;;;3.30;1.90;;;12.50;57.80;;;;;;4972790;28;20436;-81
2023/03/13 12:48:45;;;;;;;6.93;3.10;;;12.60;56.70;;;;;;4974213;28;20110;-81
2023/03/13 12:51:33;;;;;;;3.45;2.33;;;12.70;56.60;;;;;;4974411;28;20035;-81
2023/03/13 12:54:35;;;;;;;7.65;3.08;;;12.70;56.20;;;;;;4972832;28;20059;-81
2023/03/13 12:57:14;;;;;;;5.03;2.45;;;12.70;54.90;;;;;;4974193;28;20125;-81
2023/03/13 12:59:55;;;;;;;9.77;1.92;;;12.60;55.70;;;;;;4974343;28;20109;-81
2023/03/13 13:02:24;;;;;;;4.43;2.10;;;12.60;55.20;;;;;;4973306;28;20386;-81
2023/03/13 13:04:53;;;;;;;5.28;1.92;;;12.50;55.60;;;;;;4982724;28;20034;-81
2023/03/13 13:07:32;;;;;;;5.53;2.30;;;12.30;56.50;;;;;;4992981;28;20380;-81